CJY9 weather

La Loche Seaplane Base
Saskatchewan, Canada

Public forecast

Using degrees Celsius for public forecast. Weather courtesy of forecast.io.

METAR (pilot weather report)

Report is more than 2 hours old.

Closest report is Buffalo Narrows Airport, 51.0 nm (94.4 km) SE. Retrieved 2019/05/21 04:00 UTC (6 hours ago):

CYVT 210400Z 14005KT 15SM FEW260 15/01 A2999 RMK CI2 LAST STFD OBS/NXT 211200 UTC SLP166 DENSITY ALT 1700FT

TAF (pilot weather forecast)

Forecast is more than 6 hours old.

Closest forecast is Buffalo Narrows Airport, 51.0 nm (94.4 km) SE. Retrieved 2019/05/21 01:00 UTC (9 hours ago):

TAF CYVT 210038Z 2101/2104 17010KT P6SM SCT280 BECMG 2102/2104 15006KT RMK NXT FCST WILL BE ISSUED AT 211345Z